Terminal Aerodrome Forecast
Issued by NWS

Home | Current Version | Previous Version | Graphics & Text | Print | Product List | Glossary Off
Versions: 1 2 3 4 5 6 7 8 9 10 11 12 13 14

000
FTUS43 KDDC 270339 AAA
TAFHYS
TAF AMD
KHYS 270339Z 2704/2724 08007KT P6SM VCTS BKN040CB
     FM270530 VRB25G35KT 2SM TSRA BR OVC020CB
     FM270900 13004KT P6SM SCT100=

USA.gov is the U.S. government's official web portal to all federal, state and local government web resources and services.